sensor_id;sensor_type;location;lat;lon;timestamp;P1;durP1;ratioP1;P2;durP2;ratioP2
52718;SDS011;38616;42.140;24.760;2022-12-29T00:01:32;18.85;;;6.85;;
52718;SDS011;38616;42.140;24.760;2022-12-29T00:03:58;19.90;;;6.07;;
52718;SDS011;38616;42.140;24.760;2022-12-29T00:06:23;14.90;;;7.32;;
52718;SDS011;38616;42.140;24.760;2022-12-29T00:08:49;18.30;;;7.57;;
52718;SDS011;38616;42.140;24.760;2022-12-29T00:11:16;16.40;;;7.43;;
52718;SDS011;38616;42.140;24.760;2022-12-29T00:13:43;18.30;;;8.20;;
52718;SDS011;38616;42.140;24.760;2022-12-29T00:16:27;16.33;;;7.18;;
52718;SDS011;38616;42.140;24.760;2022-12-29T00:18:53;11.75;;;6.65;;
52718;SDS011;38616;42.140;24.760;2022-12-29T00:21:20;22.70;;;7.47;;
52718;SDS011;38616;42.140;24.760;2022-12-29T00:24:13;13.38;;;6.85;;
52718;SDS011;38616;42.140;24.760;2022-12-29T00:27:32;22.77;;;8.57;;
52718;SDS011;38616;42.140;24.760;2022-12-29T00:29:53;16.45;;;8.13;;
52718;SDS011;38616;42.140;24.760;2022-12-29T00:32:37;19.73;;;8.07;;
52718;SDS011;38616;42.140;24.760;2022-12-29T00:35:31;16.67;;;7.63;;
52718;SDS011;38616;42.140;24.760;2022-12-29T00:38:03;24.35;;;10.73;;
52718;SDS011;38616;42.140;24.760;2022-12-29T00:40:51;21.98;;;9.50;;
52718;SDS011;38616;42.140;24.760;2022-12-29T00:43:35;17.83;;;8.35;;
52718;SDS011;38616;42.140;24.760;2022-12-29T00:46:19;19.63;;;8.60;;
52718;SDS011;38616;42.140;24.760;2022-12-29T00:48:44;22.45;;;10.18;;
52718;SDS011;38616;42.140;24.760;2022-12-29T00:51:28;19.02;;;9.82;;
52718;SDS011;38616;42.140;24.760;2022-12-29T00:53:54;27.10;;;12.00;;
52718;SDS011;38616;42.140;24.760;2022-12-29T00:56:19;18.98;;;10.35;;
52718;SDS011;38616;42.140;24.760;2022-12-29T00:58:45;21.00;;;10.65;;
52718;SDS011;38616;42.140;24.760;2022-12-29T01:01:10;24.02;;;10.82;;
52718;SDS011;38616;42.140;24.760;2022-12-29T01:03:36;27.85;;;11.13;;
52718;SDS011;38616;42.140;24.760;2022-12-29T01:06:04;25.58;;;10.30;;
52718;SDS011;38616;42.140;24.760;2022-12-29T01:08:31;22.42;;;8.88;;
52718;SDS011;38616;42.140;24.760;2022-12-29T01:10:58;17.27;;;8.52;;
52718;SDS011;38616;42.140;24.760;2022-12-29T01:13:24;16.08;;;8.13;;
52718;SDS011;38616;42.140;24.760;2022-12-29T01:15:50;21.52;;;8.23;;
52718;SDS011;38616;42.140;24.760;2022-12-29T01:18:16;20.33;;;10.13;;
52718;SDS011;38616;42.140;24.760;2022-12-29T01:20:41;18.75;;;8.73;;
52718;SDS011;38616;42.140;24.760;2022-12-29T01:23:06;21.42;;;9.88;;
52718;SDS011;38616;42.140;24.760;2022-12-29T01:25:32;23.52;;;9.55;;
52718;SDS011;38616;42.140;24.760;2022-12-29T01:27:57;20.23;;;10.02;;
52718;SDS011;38616;42.140;24.760;2022-12-29T01:30:23;24.67;;;10.95;;
52718;SDS011;38616;42.140;24.760;2022-12-29T01:32:48;20.67;;;10.20;;
52718;SDS011;38616;42.140;24.760;2022-12-29T01:35:13;21.50;;;9.60;;
52718;SDS011;38616;42.140;24.760;2022-12-29T01:37:39;21.63;;;10.38;;
52718;SDS011;38616;42.140;24.760;2022-12-29T01:40:04;20.95;;;10.45;;
52718;SDS011;38616;42.140;24.760;2022-12-29T01:42:30;18.65;;;9.70;;
52718;SDS011;38616;42.140;24.760;2022-12-29T01:44:56;23.48;;;9.95;;
52718;SDS011;38616;42.140;24.760;2022-12-29T01:50:16;16.40;;;8.93;;
52718;SDS011;38616;42.140;24.760;2022-12-29T01:52:51;19.13;;;9.50;;
52718;SDS011;38616;42.140;24.760;2022-12-29T01:55:30;20.15;;;9.63;;
52718;SDS011;38616;42.140;24.760;2022-12-29T01:58:02;19.83;;;9.50;;
52718;SDS011;38616;42.140;24.760;2022-12-29T02:00:31;23.45;;;11.02;;
52718;SDS011;38616;42.140;24.760;2022-12-29T02:02:57;20.73;;;9.75;;
52718;SDS011;38616;42.140;24.760;2022-12-29T02:05:27;19.38;;;9.85;;
52718;SDS011;38616;42.140;24.760;2022-12-29T02:08:14;19.48;;;8.85;;
52718;SDS011;38616;42.140;24.760;2022-12-29T02:10:41;17.00;;;8.98;;
52718;SDS011;38616;42.140;24.760;2022-12-29T02:13:09;14.35;;;7.90;;
52718;SDS011;38616;42.140;24.760;2022-12-29T02:15:42;17.23;;;9.25;;
52718;SDS011;38616;42.140;24.760;2022-12-29T02:18:18;16.17;;;8.90;;
52718;SDS011;38616;42.140;24.760;2022-12-29T02:24:30;16.08;;;8.48;;
52718;SDS011;38616;42.140;24.760;2022-12-29T02:35:21;23.10;;;10.13;;
52718;SDS011;38616;42.140;24.760;2022-12-29T02:41:14;20.95;;;9.32;;
52718;SDS011;38616;42.140;24.760;2022-12-29T02:49:51;22.48;;;10.60;;
52718;SDS011;38616;42.140;24.760;2022-12-29T02:52:23;18.85;;;9.82;;
52718;SDS011;38616;42.140;24.760;2022-12-29T02:54:53;19.50;;;9.35;;
52718;SDS011;38616;42.140;24.760;2022-12-29T02:59:51;18.55;;;9.90;;
52718;SDS011;38616;42.140;24.760;2022-12-29T03:22:26;27.88;;;11.00;;
52718;SDS011;38616;42.140;24.760;2022-12-29T03:24:57;22.20;;;11.35;;
52718;SDS011;38616;42.140;24.760;2022-12-29T03:27:45;24.67;;;11.35;;
52718;SDS011;38616;42.140;24.760;2022-12-29T03:30:14;20.35;;;11.32;;
52718;SDS011;38616;42.140;24.760;2022-12-29T03:32:46;25.55;;;12.27;;
52718;SDS011;38616;42.140;24.760;2022-12-29T03:35:15;25.33;;;11.73;;
52718;SDS011;38616;42.140;24.760;2022-12-29T03:37:46;22.17;;;12.00;;
52718;SDS011;38616;42.140;24.760;2022-12-29T03:40:18;23.73;;;11.95;;
52718;SDS011;38616;42.140;24.760;2022-12-29T03:42:46;26.95;;;12.38;;
52718;SDS011;38616;42.140;24.760;2022-12-29T03:45:13;26.90;;;12.07;;
52718;SDS011;38616;42.140;24.760;2022-12-29T03:47:38;22.58;;;12.05;;
52718;SDS011;38616;42.140;24.760;2022-12-29T03:50:04;24.90;;;11.52;;
52718;SDS011;38616;42.140;24.760;2022-12-29T03:52:30;21.73;;;9.75;;
52718;SDS011;38616;42.140;24.760;2022-12-29T03:54:55;26.20;;;10.57;;
52718;SDS011;38616;42.140;24.760;2022-12-29T03:57:21;24.80;;;11.25;;
52718;SDS011;38616;42.140;24.760;2022-12-29T03:59:46;24.05;;;11.80;;
52718;SDS011;38616;42.140;24.760;2022-12-29T04:02:12;27.42;;;12.23;;
52718;SDS011;38616;42.140;24.760;2022-12-29T04:04:37;25.02;;;11.88;;
52718;SDS011;38616;42.140;24.760;2022-12-29T04:07:02;23.98;;;11.63;;
52718;SDS011;38616;42.140;24.760;2022-12-29T04:09:28;22.92;;;12.45;;
52718;SDS011;38616;42.140;24.760;2022-12-29T04:11:54;26.27;;;12.73;;
52718;SDS011;38616;42.140;24.760;2022-12-29T04:14:20;24.17;;;12.95;;
52718;SDS011;38616;42.140;24.760;2022-12-29T04:16:45;31.80;;;13.75;;
52718;SDS011;38616;42.140;24.760;2022-12-29T04:19:11;30.27;;;15.68;;
52718;SDS011;38616;42.140;24.760;2022-12-29T04:21:36;28.30;;;13.88;;
52718;SDS011;38616;42.140;24.760;2022-12-29T04:24:01;27.73;;;14.30;;
52718;SDS011;38616;42.140;24.760;2022-12-29T04:26:27;28.65;;;13.98;;
52718;SDS011;38616;42.140;24.760;2022-12-29T04:28:53;30.65;;;13.95;;
52718;SDS011;38616;42.140;24.760;2022-12-29T04:31:18;30.30;;;13.65;;
52718;SDS011;38616;42.140;24.760;2022-12-29T04:33:44;27.52;;;13.93;;
52718;SDS011;38616;42.140;24.760;2022-12-29T04:36:09;27.58;;;13.23;;
52718;SDS011;38616;42.140;24.760;2022-12-29T04:38:35;29.27;;;15.07;;
52718;SDS011;38616;42.140;24.760;2022-12-29T04:41:00;31.00;;;14.90;;
52718;SDS011;38616;42.140;24.760;2022-12-29T04:43:26;26.95;;;13.98;;
52718;SDS011;38616;42.140;24.760;2022-12-29T04:45:52;27.15;;;14.13;;
52718;SDS011;38616;42.140;24.760;2022-12-29T04:48:17;26.20;;;13.88;;
52718;SDS011;38616;42.140;24.760;2022-12-29T04:50:43;32.22;;;12.60;;
52718;SDS011;38616;42.140;24.760;2022-12-29T04:53:09;32.45;;;13.68;;
52718;SDS011;38616;42.140;24.760;2022-12-29T04:55:34;23.02;;;13.57;;
52718;SDS011;38616;42.140;24.760;2022-12-29T04:58:00;30.25;;;14.73;;
52718;SDS011;38616;42.140;24.760;2022-12-29T05:00:25;33.78;;;14.40;;
52718;SDS011;38616;42.140;24.760;2022-12-29T05:02:51;29.00;;;14.25;;
52718;SDS011;38616;42.140;24.760;2022-12-29T05:05:16;32.75;;;12.77;;
52718;SDS011;38616;42.140;24.760;2022-12-29T05:07:42;32.60;;;14.68;;
52718;SDS011;38616;42.140;24.760;2022-12-29T05:10:08;30.20;;;14.45;;
52718;SDS011;38616;42.140;24.760;2022-12-29T05:12:33;29.63;;;14.80;;
52718;SDS011;38616;42.140;24.760;2022-12-29T05:15:00;32.78;;;15.13;;
52718;SDS011;38616;42.140;24.760;2022-12-29T05:20:40;29.40;;;13.90;;
52718;SDS011;38616;42.140;24.760;2022-12-29T05:23:05;25.20;;;13.75;;
52718;SDS011;38616;42.140;24.760;2022-12-29T05:25:31;28.58;;;13.68;;
52718;SDS011;38616;42.140;24.760;2022-12-29T05:27:56;36.70;;;14.60;;
52718;SDS011;38616;42.140;24.760;2022-12-29T05:30:21;31.45;;;14.70;;
52718;SDS011;38616;42.140;24.760;2022-12-29T05:32:50;34.38;;;16.58;;
52718;SDS011;38616;42.140;24.760;2022-12-29T05:35:16;37.85;;;16.83;;
52718;SDS011;38616;42.140;24.760;2022-12-29T05:37:45;37.55;;;15.85;;
52718;SDS011;38616;42.140;24.760;2022-12-29T05:40:11;31.75;;;16.65;;
52718;SDS011;38616;42.140;24.760;2022-12-29T05:42:37;37.05;;;16.52;;
52718;SDS011;38616;42.140;24.760;2022-12-29T05:45:03;34.45;;;15.73;;
52718;SDS011;38616;42.140;24.760;2022-12-29T05:47:29;32.63;;;17.25;;
52718;SDS011;38616;42.140;24.760;2022-12-29T05:49:54;34.53;;;15.95;;
52718;SDS011;38616;42.140;24.760;2022-12-29T05:55:07;37.17;;;16.17;;
52718;SDS011;38616;42.140;24.760;2022-12-29T05:57:33;36.95;;;17.05;;
52718;SDS011;38616;42.140;24.760;2022-12-29T05:59:58;32.33;;;16.35;;
52718;SDS011;38616;42.140;24.760;2022-12-29T06:02:24;39.45;;;17.13;;
52718;SDS011;38616;42.140;24.760;2022-12-29T06:04:49;37.67;;;16.33;;
52718;SDS011;38616;42.140;24.760;2022-12-29T06:07:15;36.30;;;16.25;;
52718;SDS011;38616;42.140;24.760;2022-12-29T06:09:40;33.33;;;15.35;;
52718;SDS011;38616;42.140;24.760;2022-12-29T06:12:06;36.03;;;17.77;;
52718;SDS011;38616;42.140;24.760;2022-12-29T06:14:31;50.17;;;19.48;;
52718;SDS011;38616;42.140;24.760;2022-12-29T06:16:57;40.80;;;20.08;;
52718;SDS011;38616;42.140;24.760;2022-12-29T06:19:22;37.22;;;19.15;;
52718;SDS011;38616;42.140;24.760;2022-12-29T06:21:48;60.47;;;27.38;;
52718;SDS011;38616;42.140;24.760;2022-12-29T06:24:13;58.53;;;24.95;;
52718;SDS011;38616;42.140;24.760;2022-12-29T06:26:39;44.20;;;19.83;;
52718;SDS011;38616;42.140;24.760;2022-12-29T06:29:05;45.03;;;23.25;;
52718;SDS011;38616;42.140;24.760;2022-12-29T06:31:33;49.92;;;24.17;;
52718;SDS011;38616;42.140;24.760;2022-12-29T06:33:58;48.05;;;22.95;;
52718;SDS011;38616;42.140;24.760;2022-12-29T06:36:24;52.28;;;23.15;;
52718;SDS011;38616;42.140;24.760;2022-12-29T06:38:49;45.65;;;22.00;;
52718;SDS011;38616;42.140;24.760;2022-12-29T06:41:17;51.83;;;22.67;;
52718;SDS011;38616;42.140;24.760;2022-12-29T06:43:44;48.83;;;25.17;;
52718;SDS011;38616;42.140;24.760;2022-12-29T06:46:09;48.88;;;22.35;;
52718;SDS011;38616;42.140;24.760;2022-12-29T06:48:35;49.45;;;19.25;;
52718;SDS011;38616;42.140;24.760;2022-12-29T06:51:00;51.35;;;23.05;;
52718;SDS011;38616;42.140;24.760;2022-12-29T06:53:26;39.85;;;20.38;;
52718;SDS011;38616;42.140;24.760;2022-12-29T06:55:51;39.38;;;20.13;;
52718;SDS011;38616;42.140;24.760;2022-12-29T06:58:17;40.30;;;19.15;;
52718;SDS011;38616;42.140;24.760;2022-12-29T07:00:42;39.95;;;20.77;;
52718;SDS011;38616;42.140;24.760;2022-12-29T07:03:08;38.53;;;19.67;;
52718;SDS011;38616;42.140;24.760;2022-12-29T07:05:33;37.25;;;18.80;;
52718;SDS011;38616;42.140;24.760;2022-12-29T07:07:59;48.08;;;21.88;;
52718;SDS011;38616;42.140;24.760;2022-12-29T07:10:25;49.45;;;21.58;;
52718;SDS011;38616;42.140;24.760;2022-12-29T07:12:51;43.40;;;23.75;;
52718;SDS011;38616;42.140;24.760;2022-12-29T07:15:16;47.65;;;24.02;;
52718;SDS011;38616;42.140;24.760;2022-12-29T07:17:42;41.47;;;22.02;;
52718;SDS011;38616;42.140;24.760;2022-12-29T07:20:08;45.75;;;23.08;;
52718;SDS011;38616;42.140;24.760;2022-12-29T07:22:34;43.85;;;21.73;;
52718;SDS011;38616;42.140;24.760;2022-12-29T07:25:00;42.65;;;22.38;;
52718;SDS011;38616;42.140;24.760;2022-12-29T07:27:27;45.00;;;21.80;;
52718;SDS011;38616;42.140;24.760;2022-12-29T07:29:53;41.45;;;21.52;;
52718;SDS011;38616;42.140;24.760;2022-12-29T07:32:18;42.03;;;22.00;;
52718;SDS011;38616;42.140;24.760;2022-12-29T07:34:44;37.63;;;18.50;;
52718;SDS011;38616;42.140;24.760;2022-12-29T07:39:39;37.00;;;17.67;;
52718;SDS011;38616;42.140;24.760;2022-12-29T07:42:04;35.55;;;18.13;;
52718;SDS011;38616;42.140;24.760;2022-12-29T07:44:30;36.40;;;17.77;;
52718;SDS011;38616;42.140;24.760;2022-12-29T07:46:55;37.58;;;18.27;;
52718;SDS011;38616;42.140;24.760;2022-12-29T07:49:21;35.65;;;18.80;;
52718;SDS011;38616;42.140;24.760;2022-12-29T07:51:47;36.05;;;18.33;;
52718;SDS011;38616;42.140;24.760;2022-12-29T07:54:12;36.20;;;19.52;;
52718;SDS011;38616;42.140;24.760;2022-12-29T07:56:38;46.03;;;21.35;;
52718;SDS011;38616;42.140;24.760;2022-12-29T07:59:03;38.92;;;19.92;;
52718;SDS011;38616;42.140;24.760;2022-12-29T08:01:29;35.45;;;17.85;;
52718;SDS011;38616;42.140;24.760;2022-12-29T08:03:54;37.85;;;19.17;;
52718;SDS011;38616;42.140;24.760;2022-12-29T08:06:20;40.28;;;20.80;;
52718;SDS011;38616;42.140;24.760;2022-12-29T08:08:47;41.72;;;20.65;;
52718;SDS011;38616;42.140;24.760;2022-12-29T08:11:12;41.33;;;19.38;;
52718;SDS011;38616;42.140;24.760;2022-12-29T08:13:38;40.97;;;20.60;;
52718;SDS011;38616;42.140;24.760;2022-12-29T08:16:03;39.72;;;18.55;;
52718;SDS011;38616;42.140;24.760;2022-12-29T08:18:29;33.60;;;17.65;;
52718;SDS011;38616;42.140;24.760;2022-12-29T08:20:54;35.08;;;17.80;;
52718;SDS011;38616;42.140;24.760;2022-12-29T08:23:20;35.53;;;18.25;;
52718;SDS011;38616;42.140;24.760;2022-12-29T08:25:47;37.90;;;19.42;;
52718;SDS011;38616;42.140;24.760;2022-12-29T08:28:22;35.47;;;19.02;;
52718;SDS011;38616;42.140;24.760;2022-12-29T08:30:47;35.70;;;21.02;;
52718;SDS011;38616;42.140;24.760;2022-12-29T08:33:12;39.38;;;20.90;;
52718;SDS011;38616;42.140;24.760;2022-12-29T08:35:38;40.33;;;23.67;;
52718;SDS011;38616;42.140;24.760;2022-12-29T08:38:03;44.85;;;20.55;;
52718;SDS011;38616;42.140;24.760;2022-12-29T08:40:29;38.33;;;17.92;;
52718;SDS011;38616;42.140;24.760;2022-12-29T08:42:54;39.33;;;18.83;;
52718;SDS011;38616;42.140;24.760;2022-12-29T08:45:20;34.95;;;19.25;;
52718;SDS011;38616;42.140;24.760;2022-12-29T08:47:45;35.10;;;16.38;;
52718;SDS011;38616;42.140;24.760;2022-12-29T08:50:11;40.10;;;18.58;;
52718;SDS011;38616;42.140;24.760;2022-12-29T08:52:36;32.97;;;18.15;;
52718;SDS011;38616;42.140;24.760;2022-12-29T08:55:02;37.67;;;18.48;;
52718;SDS011;38616;42.140;24.760;2022-12-29T08:57:27;34.92;;;18.83;;
52718;SDS011;38616;42.140;24.760;2022-12-29T08:59:53;34.10;;;17.20;;
52718;SDS011;38616;42.140;24.760;2022-12-29T09:02:18;31.48;;;18.00;;
52718;SDS011;38616;42.140;24.760;2022-12-29T09:04:44;37.08;;;18.33;;
52718;SDS011;38616;42.140;24.760;2022-12-29T09:07:09;30.17;;;16.90;;
52718;SDS011;38616;42.140;24.760;2022-12-29T09:09:34;28.88;;;15.23;;
52718;SDS011;38616;42.140;24.760;2022-12-29T09:12:00;30.13;;;15.93;;
52718;SDS011;38616;42.140;24.760;2022-12-29T09:14:25;26.55;;;14.73;;
52718;SDS011;38616;42.140;24.760;2022-12-29T09:16:51;27.08;;;14.88;;
52718;SDS011;38616;42.140;24.760;2022-12-29T09:19:36;29.17;;;15.82;;
52718;SDS011;38616;42.140;24.760;2022-12-29T09:22:01;28.83;;;14.90;;
52718;SDS011;38616;42.140;24.760;2022-12-29T09:24:27;33.80;;;15.35;;
52718;SDS011;38616;42.140;24.760;2022-12-29T09:26:53;32.38;;;14.05;;
52718;SDS011;38616;42.140;24.760;2022-12-29T09:29:18;24.30;;;14.27;;
52718;SDS011;38616;42.140;24.760;2022-12-29T09:31:44;27.63;;;14.73;;
52718;SDS011;38616;42.140;24.760;2022-12-29T09:34:09;25.88;;;14.48;;
52718;SDS011;38616;42.140;24.760;2022-12-29T09:36:35;22.55;;;13.13;;
52718;SDS011;38616;42.140;24.760;2022-12-29T09:39:00;31.90;;;16.15;;
52718;SDS011;38616;42.140;24.760;2022-12-29T09:41:43;28.80;;;14.77;;
52718;SDS011;38616;42.140;24.760;2022-12-29T09:47:34;29.45;;;15.07;;
52718;SDS011;38616;42.140;24.760;2022-12-29T09:50:02;26.17;;;14.82;;
52718;SDS011;38616;42.140;24.760;2022-12-29T09:52:37;32.63;;;16.73;;
52718;SDS011;38616;42.140;24.760;2022-12-29T09:57:40;32.30;;;16.48;;
52718;SDS011;38616;42.140;24.760;2022-12-29T10:00:12;37.22;;;18.60;;
52718;SDS011;38616;42.140;24.760;2022-12-29T10:08:06;23.50;;;13.07;;
52718;SDS011;38616;42.140;24.760;2022-12-29T10:10:48;24.92;;;13.82;;
52718;SDS011;38616;42.140;24.760;2022-12-29T10:16:04;27.00;;;13.32;;
52718;SDS011;38616;42.140;24.760;2022-12-29T10:21:05;25.30;;;14.07;;
52718;SDS011;38616;42.140;24.760;2022-12-29T10:23:53;27.15;;;13.57;;
52718;SDS011;38616;42.140;24.760;2022-12-29T10:26:21;23.98;;;13.57;;
52718;SDS011;38616;42.140;24.760;2022-12-29T10:29:08;31.85;;;15.23;;
52718;SDS011;38616;42.140;24.760;2022-12-29T10:31:48;34.33;;;16.05;;
52718;SDS011;38616;42.140;24.760;2022-12-29T10:34:22;28.55;;;15.40;;
52718;SDS011;38616;42.140;24.760;2022-12-29T10:36:53;28.55;;;14.90;;
52718;SDS011;38616;42.140;24.760;2022-12-29T10:39:23;31.95;;;15.30;;
52718;SDS011;38616;42.140;24.760;2022-12-29T10:44:47;27.83;;;14.27;;
52718;SDS011;38616;42.140;24.760;2022-12-29T10:47:14;23.13;;;13.65;;
52718;SDS011;38616;42.140;24.760;2022-12-29T10:49:44;34.05;;;18.90;;
52718;SDS011;38616;42.140;24.760;2022-12-29T10:52:12;35.28;;;14.65;;
52718;SDS011;38616;42.140;24.760;2022-12-29T11:00:12;29.65;;;15.20;;
52718;SDS011;38616;42.140;24.760;2022-12-29T11:08:11;27.98;;;14.68;;
52718;SDS011;38616;42.140;24.760;2022-12-29T11:10:42;31.48;;;15.02;;
52718;SDS011;38616;42.140;24.760;2022-12-29T11:15:47;27.23;;;14.57;;
52718;SDS011;38616;42.140;24.760;2022-12-29T11:18:59;36.20;;;14.60;;
52718;SDS011;38616;42.140;24.760;2022-12-29T11:21:07;28.15;;;12.63;;
52718;SDS011;38616;42.140;24.760;2022-12-29T11:23:59;26.45;;;15.50;;
52718;SDS011;38616;42.140;24.760;2022-12-29T11:26:29;28.98;;;15.27;;
52718;SDS011;38616;42.140;24.760;2022-12-29T11:31:52;31.05;;;15.02;;
52718;SDS011;38616;42.140;24.760;2022-12-29T11:37:03;34.78;;;15.60;;
52718;SDS011;38616;42.140;24.760;2022-12-29T11:39:33;31.00;;;16.48;;
52718;SDS011;38616;42.140;24.760;2022-12-29T11:42:20;28.80;;;15.07;;
52718;SDS011;38616;42.140;24.760;2022-12-29T11:44:49;26.90;;;14.98;;
52718;SDS011;38616;42.140;24.760;2022-12-29T11:47:25;35.80;;;17.38;;
52718;SDS011;38616;42.140;24.760;2022-12-29T11:50:00;42.65;;;19.85;;
52718;SDS011;38616;42.140;24.760;2022-12-29T11:52:31;37.33;;;17.83;;
52718;SDS011;38616;42.140;24.760;2022-12-29T11:55:05;34.55;;;17.67;;
52718;SDS011;38616;42.140;24.760;2022-12-29T11:57:45;36.30;;;19.88;;
52718;SDS011;38616;42.140;24.760;2022-12-29T12:00:16;35.90;;;16.48;;
52718;SDS011;38616;42.140;24.760;2022-12-29T12:02:53;32.10;;;16.50;;
52718;SDS011;38616;42.140;24.760;2022-12-29T12:05:24;31.75;;;15.45;;
52718;SDS011;38616;42.140;24.760;2022-12-29T12:08:19;32.92;;;16.05;;
52718;SDS011;38616;42.140;24.760;2022-12-29T12:12:00;35.63;;;16.02;;
52718;SDS011;38616;42.140;24.760;2022-12-29T12:14:17;29.20;;;16.38;;
52718;SDS011;38616;42.140;24.760;2022-12-29T12:16:55;30.33;;;16.08;;
52718;SDS011;38616;42.140;24.760;2022-12-29T12:22:40;26.55;;;14.40;;
52718;SDS011;38616;42.140;24.760;2022-12-29T12:25:18;30.05;;;16.05;;
52718;SDS011;38616;42.140;24.760;2022-12-29T12:28:05;39.80;;;17.50;;
52718;SDS011;38616;42.140;24.760;2022-12-29T12:30:55;36.03;;;16.50;;
52718;SDS011;38616;42.140;24.760;2022-12-29T12:33:37;38.78;;;18.75;;
52718;SDS011;38616;42.140;24.760;2022-12-29T12:36:22;50.25;;;24.77;;
52718;SDS011;38616;42.140;24.760;2022-12-29T12:39:12;42.88;;;21.65;;
52718;SDS011;38616;42.140;24.760;2022-12-29T12:58:33;27.60;;;16.02;;
52718;SDS011;38616;42.140;24.760;2022-12-29T13:01:22;33.25;;;16.60;;
52718;SDS011;38616;42.140;24.760;2022-12-29T13:06:53;28.77;;;16.20;;
52718;SDS011;38616;42.140;24.760;2022-12-29T13:18:10;33.60;;;16.45;;
52718;SDS011;38616;42.140;24.760;2022-12-29T13:31:40;28.15;;;14.85;;
52718;SDS011;38616;42.140;24.760;2022-12-29T13:34:17;27.20;;;14.35;;
52718;SDS011;38616;42.140;24.760;2022-12-29T13:37:11;25.63;;;13.65;;
52718;SDS011;38616;42.140;24.760;2022-12-29T13:39:41;31.55;;;15.18;;
52718;SDS011;38616;42.140;24.760;2022-12-29T13:42:12;28.85;;;13.75;;
52718;SDS011;38616;42.140;24.760;2022-12-29T13:44:40;31.88;;;15.38;;
52718;SDS011;38616;42.140;24.760;2022-12-29T13:49:52;28.33;;;14.90;;
52718;SDS011;38616;42.140;24.760;2022-12-29T14:00:26;30.90;;;15.38;;
52718;SDS011;38616;42.140;24.760;2022-12-29T14:03:16;31.80;;;16.50;;
52718;SDS011;38616;42.140;24.760;2022-12-29T14:06:05;29.90;;;17.15;;
52718;SDS011;38616;42.140;24.760;2022-12-29T14:08:40;28.00;;;15.45;;
52718;SDS011;38616;42.140;24.760;2022-12-29T14:11:07;32.28;;;16.15;;
52718;SDS011;38616;42.140;24.760;2022-12-29T14:13:37;28.67;;;14.93;;
52718;SDS011;38616;42.140;24.760;2022-12-29T14:16:04;29.83;;;15.65;;
52718;SDS011;38616;42.140;24.760;2022-12-29T14:18:32;28.45;;;15.57;;
52718;SDS011;38616;42.140;24.760;2022-12-29T14:21:10;28.02;;;16.48;;
52718;SDS011;38616;42.140;24.760;2022-12-29T14:23:44;36.70;;;16.38;;
52718;SDS011;38616;42.140;24.760;2022-12-29T14:28:44;36.35;;;15.98;;
52718;SDS011;38616;42.140;24.760;2022-12-29T14:36:35;36.15;;;15.60;;
52718;SDS011;38616;42.140;24.760;2022-12-29T14:39:04;34.55;;;16.45;;
52718;SDS011;38616;42.140;24.760;2022-12-29T14:41:58;32.10;;;16.10;;
52718;SDS011;38616;42.140;24.760;2022-12-29T14:44:25;32.45;;;17.98;;
52718;SDS011;38616;42.140;24.760;2022-12-29T14:49:23;31.67;;;17.02;;
52718;SDS011;38616;42.140;24.760;2022-12-29T14:51:52;32.15;;;16.55;;
52718;SDS011;38616;42.140;24.760;2022-12-29T14:57:04;33.67;;;17.33;;
52718;SDS011;38616;42.140;24.760;2022-12-29T14:59:36;39.35;;;17.90;;
52718;SDS011;38616;42.140;24.760;2022-12-29T15:02:03;34.00;;;16.52;;
52718;SDS011;38616;42.140;24.760;2022-12-29T15:04:38;34.75;;;16.77;;
52718;SDS011;38616;42.140;24.760;2022-12-29T15:07:07;31.48;;;16.50;;
52718;SDS011;38616;42.140;24.760;2022-12-29T15:09:47;33.92;;;16.67;;
52718;SDS011;38616;42.140;24.760;2022-12-29T15:12:30;39.60;;;19.88;;
52718;SDS011;38616;42.140;24.760;2022-12-29T15:15:27;33.97;;;17.20;;
52718;SDS011;38616;42.140;24.760;2022-12-29T15:17:54;39.78;;;16.65;;
52718;SDS011;38616;42.140;24.760;2022-12-29T15:22:48;31.08;;;15.57;;
52718;SDS011;38616;42.140;24.760;2022-12-29T15:25:20;43.00;;;22.10;;
52718;SDS011;38616;42.140;24.760;2022-12-29T15:27:52;41.75;;;21.83;;
52718;SDS011;38616;42.140;24.760;2022-12-29T15:30:22;51.70;;;26.77;;
52718;SDS011;38616;42.140;24.760;2022-12-29T15:32:48;43.35;;;22.70;;
52718;SDS011;38616;42.140;24.760;2022-12-29T15:35:30;46.70;;;22.50;;
52718;SDS011;38616;42.140;24.760;2022-12-29T15:38:00;50.75;;;27.48;;
52718;SDS011;38616;42.140;24.760;2022-12-29T15:40:37;70.63;;;31.83;;
52718;SDS011;38616;42.140;24.760;2022-12-29T15:43:24;68.75;;;36.30;;
52718;SDS011;38616;42.140;24.760;2022-12-29T15:45:52;66.85;;;35.13;;
52718;SDS011;38616;42.140;24.760;2022-12-29T15:48:21;60.70;;;35.80;;
52718;SDS011;38616;42.140;24.760;2022-12-29T15:50:48;86.20;;;42.35;;
52718;SDS011;38616;42.140;24.760;2022-12-29T15:53:18;62.22;;;37.00;;
52718;SDS011;38616;42.140;24.760;2022-12-29T15:55:51;65.07;;;37.17;;
52718;SDS011;38616;42.140;24.760;2022-12-29T15:58:20;61.03;;;34.33;;
52718;SDS011;38616;42.140;24.760;2022-12-29T16:00:49;93.95;;;50.15;;
52718;SDS011;38616;42.140;24.760;2022-12-29T16:03:22;89.43;;;46.13;;
52718;SDS011;38616;42.140;24.760;2022-12-29T16:05:55;67.25;;;34.78;;
52718;SDS011;38616;42.140;24.760;2022-12-29T16:10:53;55.05;;;30.10;;
52718;SDS011;38616;42.140;24.760;2022-12-29T16:13:31;64.75;;;32.58;;
52718;SDS011;38616;42.140;24.760;2022-12-29T16:16:00;67.97;;;34.50;;
52718;SDS011;38616;42.140;24.760;2022-12-29T16:18:35;69.07;;;35.90;;
52718;SDS011;38616;42.140;24.760;2022-12-29T16:21:03;70.45;;;35.72;;
52718;SDS011;38616;42.140;24.760;2022-12-29T16:25:57;87.22;;;44.13;;
52718;SDS011;38616;42.140;24.760;2022-12-29T16:28:24;77.00;;;39.47;;
52718;SDS011;38616;42.140;24.760;2022-12-29T16:31:04;78.68;;;36.97;;
52718;SDS011;38616;42.140;24.760;2022-12-29T16:33:48;67.80;;;34.75;;
52718;SDS011;38616;42.140;24.760;2022-12-29T16:36:22;73.13;;;35.90;;
52718;SDS011;38616;42.140;24.760;2022-12-29T16:38:48;75.18;;;38.42;;
52718;SDS011;38616;42.140;24.760;2022-12-29T16:41:27;75.53;;;36.42;;
52718;SDS011;38616;42.140;24.760;2022-12-29T16:49:27;83.25;;;39.83;;
52718;SDS011;38616;42.140;24.760;2022-12-29T16:51:54;89.47;;;43.10;;
52718;SDS011;38616;42.140;24.760;2022-12-29T16:54:24;92.85;;;45.25;;
52718;SDS011;38616;42.140;24.760;2022-12-29T16:56:58;86.53;;;41.47;;
52718;SDS011;38616;42.140;24.760;2022-12-29T17:01:58;86.57;;;41.35;;
52718;SDS011;38616;42.140;24.760;2022-12-29T17:04:30;87.80;;;43.00;;
52718;SDS011;38616;42.140;24.760;2022-12-29T17:06:55;115.35;;;52.08;;
52718;SDS011;38616;42.140;24.760;2022-12-29T17:09:22;104.28;;;49.67;;
52718;SDS011;38616;42.140;24.760;2022-12-29T17:11:53;102.90;;;45.60;;
52718;SDS011;38616;42.140;24.760;2022-12-29T17:14:30;96.00;;;44.60;;
52718;SDS011;38616;42.140;24.760;2022-12-29T17:17:13;92.95;;;43.80;;
52718;SDS011;38616;42.140;24.760;2022-12-29T17:19:52;92.45;;;42.25;;
52718;SDS011;38616;42.140;24.760;2022-12-29T17:22:25;89.82;;;42.08;;
52718;SDS011;38616;42.140;24.760;2022-12-29T17:24:55;94.00;;;41.75;;